createdAt,value
2022-07-29T00:00:01.157Z,16.81
2022-07-29T00:02:28.814Z,16.78
2022-07-29T00:04:55.672Z,16.76
2022-07-29T00:07:22.167Z,16.70
2022-07-29T00:09:51.983Z,16.63
2022-07-29T00:12:21.395Z,16.59
2022-07-29T00:14:53.071Z,16.59
2022-07-29T00:17:19.487Z,16.56
2022-07-29T00:19:45.958Z,16.54
2022-07-29T00:22:12.378Z,16.52
2022-07-29T00:24:38.800Z,16.49
2022-07-29T00:27:05.272Z,16.49
2022-07-29T00:29:33.925Z,16.49
2022-07-29T00:32:01.476Z,16.46
2022-07-29T00:34:46.775Z,16.41
2022-07-29T00:37:13.225Z,16.35
2022-07-29T00:39:39.706Z,16.31
2022-07-29T00:42:06.571Z,16.30
2022-07-29T00:44:37.795Z,16.29
2022-07-29T00:47:04.358Z,16.27
2022-07-29T00:49:30.892Z,16.25
2022-07-29T00:51:58.177Z,16.25
2022-07-29T00:54:24.725Z,16.23
2022-07-29T00:56:51.173Z,16.23
2022-07-29T00:59:17.616Z,16.23
2022-07-29T01:01:44.138Z,16.19
2022-07-29T01:04:10.745Z,16.21
2022-07-29T01:06:37.506Z,16.22
2022-07-29T01:09:04.252Z,16.19
2022-07-29T01:11:30.697Z,16.15
2022-07-29T01:13:57.859Z,16.12
2022-07-29T01:16:43.121Z,16.12
2022-07-29T01:19:49.917Z,16.15
2022-07-29T01:22:29.856Z,16.12
2022-07-29T01:25:33.143Z,16.07
2022-07-29T01:28:18.239Z,16.02
2022-07-29T01:30:47.415Z,16.03
2022-07-29T01:33:38.313Z,16.02
2022-07-29T01:36:12.903Z,15.97
2022-07-29T01:38:42.275Z,15.94
2022-07-29T01:41:17.429Z,15.92
2022-07-29T01:43:57.110Z,15.91
2022-07-29T01:46:32.999Z,15.91
2022-07-29T01:49:09.576Z,15.89
2022-07-29T01:51:55.359Z,15.89
2022-07-29T01:54:38.270Z,15.88
2022-07-29T01:57:07.795Z,15.84
2022-07-29T01:59:37.532Z,15.83
2022-07-29T02:02:07.236Z,15.83
2022-07-29T02:04:36.818Z,15.81
2022-07-29T02:07:07.002Z,15.81
2022-07-29T02:09:36.883Z,15.82
2022-07-29T02:12:04.910Z,15.84
2022-07-29T02:14:39.419Z,15.87
2022-07-29T02:17:06.116Z,15.87
2022-07-29T02:19:34.518Z,15.86
2022-07-29T02:22:02.575Z,15.83
2022-07-29T02:24:30.829Z,15.86
2022-07-29T02:27:00.423Z,15.86
2022-07-29T02:29:29.489Z,15.84
2022-07-29T02:31:58.015Z,15.79
2022-07-29T02:34:25.568Z,15.79
2022-07-29T02:36:53.156Z,15.78
2022-07-29T02:39:20.737Z,15.77
2022-07-29T02:41:59.644Z,15.76
2022-07-29T02:44:31.284Z,15.75
2022-07-29T02:47:12.289Z,15.74
2022-07-29T02:49:56.162Z,15.71
2022-07-29T02:53:06.648Z,15.69
2022-07-29T02:55:38.311Z,15.68
2022-07-29T02:58:14.461Z,15.67
2022-07-29T03:00:41.918Z,15.70
2022-07-29T03:03:17.026Z,15.69
2022-07-29T03:05:43.798Z,15.68
2022-07-29T03:08:12.579Z,15.66
2022-07-29T03:10:46.478Z,15.69
2022-07-29T03:13:14.104Z,15.70
2022-07-29T03:15:40.923Z,15.68
2022-07-29T03:18:07.927Z,15.67
2022-07-29T03:20:34.498Z,15.68
2022-07-29T03:23:01.258Z,15.68
2022-07-29T03:25:28.352Z,15.69
2022-07-29T03:27:54.987Z,15.68
2022-07-29T03:30:22.227Z,15.66
2022-07-29T03:32:52.080Z,15.62
2022-07-29T03:35:20.421Z,15.62
2022-07-29T03:37:47.261Z,15.59
2022-07-29T03:40:19.110Z,15.57
2022-07-29T03:42:46.671Z,15.57
2022-07-29T03:45:19.070Z,15.57
2022-07-29T03:47:57.073Z,15.56
2022-07-29T03:50:26.757Z,15.55
2022-07-29T03:52:53.493Z,15.55
2022-07-29T03:55:20.234Z,15.56
2022-07-29T03:57:48.281Z,15.53
2022-07-29T04:00:16.414Z,15.53
2022-07-29T04:02:49.142Z,15.54
2022-07-29T04:05:16.930Z,15.54
2022-07-29T04:07:48.016Z,15.56
2022-07-29T04:10:16.710Z,15.56
2022-07-29T04:12:43.691Z,15.59
2022-07-29T04:15:10.744Z,15.59
2022-07-29T04:17:37.527Z,15.60
2022-07-29T04:20:05.033Z,15.60
2022-07-29T04:22:31.721Z,15.62
2022-07-29T04:25:03.348Z,15.60
2022-07-29T04:27:30.532Z,15.60
2022-07-29T04:29:57.609Z,15.59
2022-07-29T04:32:24.860Z,15.54
2022-07-29T04:34:51.540Z,15.57
2022-07-29T04:37:18.191Z,15.57
2022-07-29T04:39:44.653Z,15.56
2022-07-29T04:42:11.098Z,15.57
2022-07-29T04:44:39.703Z,15.61
2022-07-29T04:47:09.848Z,15.60
2022-07-29T04:49:39.021Z,15.60
2022-07-29T04:52:06.572Z,15.60
2022-07-29T04:54:33.146Z,15.60
2022-07-29T04:56:59.597Z,15.58
2022-07-29T04:59:27.584Z,15.58
2022-07-29T05:01:54.137Z,15.58
2022-07-29T05:04:21.010Z,15.59
2022-07-29T05:06:48.677Z,15.58
2022-07-29T05:09:15.339Z,15.59
2022-07-29T05:11:41.792Z,15.61
2022-07-29T05:14:08.245Z,15.63
2022-07-29T05:16:34.972Z,15.66
2022-07-29T05:19:01.517Z,15.68
2022-07-29T05:21:27.966Z,15.71
2022-07-29T05:23:54.406Z,15.77
2022-07-29T05:26:22.042Z,15.82
2022-07-29T05:28:48.558Z,15.86
2022-07-29T05:31:15.839Z,15.95
2022-07-29T05:33:42.578Z,15.97
2022-07-29T05:36:09.633Z,16.03
2022-07-29T05:38:37.040Z,16.11
2022-07-29T05:41:03.886Z,16.18
2022-07-29T05:43:30.908Z,16.20
2022-07-29T05:45:57.792Z,16.24
2022-07-29T05:48:24.722Z,16.32
2022-07-29T05:50:51.210Z,16.41
2022-07-29T05:53:19.597Z,16.47
2022-07-29T05:55:46.811Z,16.54
2022-07-29T05:58:13.449Z,16.57
2022-07-29T06:00:39.888Z,16.68
2022-07-29T06:03:06.482Z,16.81
2022-07-29T06:05:32.975Z,16.89
2022-07-29T06:07:59.439Z,17.04
2022-07-29T06:10:26.318Z,17.07
2022-07-29T06:12:53.768Z,17.12
2022-07-29T06:15:20.520Z,17.12
2022-07-29T06:18:00.853Z,17.12
2022-07-29T06:20:32.283Z,17.08
2022-07-29T06:22:59.138Z,17.08
2022-07-29T06:25:25.847Z,17.08
2022-07-29T06:27:53.256Z,17.05
2022-07-29T06:30:19.755Z,17.04
2022-07-29T06:32:46.233Z,17.01
2022-07-29T06:35:37.689Z,16.90
2022-07-29T06:37:59.993Z,16.82
2022-07-29T06:40:45.491Z,16.86
2022-07-29T06:43:11.973Z,16.95
2022-07-29T06:45:42.160Z,17.01
2022-07-29T06:48:08.743Z,17.15
2022-07-29T06:50:35.150Z,17.32
2022-07-29T06:53:01.561Z,17.33
2022-07-29T06:55:28.275Z,17.29
2022-07-29T06:57:54.671Z,17.41
2022-07-29T07:00:21.434Z,17.42
2022-07-29T07:02:47.886Z,17.46
2022-07-29T07:05:14.449Z,17.54
2022-07-29T07:07:40.854Z,17.81
2022-07-29T07:10:07.689Z,18.15
2022-07-29T07:12:34.141Z,18.35
2022-07-29T07:15:00.853Z,18.63
2022-07-29T07:17:27.300Z,18.90
2022-07-29T07:19:53.760Z,19.03
2022-07-29T07:22:20.246Z,19.24
2022-07-29T07:24:46.681Z,19.33
2022-07-29T07:27:13.156Z,19.45
2022-07-29T07:29:42.051Z,19.57
2022-07-29T07:32:11.044Z,19.70
2022-07-29T07:34:38.769Z,19.88
2022-07-29T07:37:06.551Z,20.06
2022-07-29T07:39:33.036Z,20.25
2022-07-29T07:41:59.629Z,20.30
2022-07-29T07:44:26.106Z,20.34
2022-07-29T07:46:52.670Z,20.33
2022-07-29T07:49:19.647Z,20.51
2022-07-29T07:51:50.867Z,20.75
2022-07-29T07:54:18.434Z,20.79
2022-07-29T07:56:49.943Z,20.72
2022-07-29T07:59:19.453Z,20.68
2022-07-29T08:01:47.992Z,20.66
2022-07-29T08:04:27.502Z,20.61
2022-07-29T08:06:55.245Z,20.70
2022-07-29T08:09:29.445Z,20.63
2022-07-29T08:11:57.592Z,20.61
2022-07-29T08:14:24.058Z,20.62
2022-07-29T08:16:50.811Z,20.69
2022-07-29T08:19:17.488Z,20.71
2022-07-29T08:21:43.925Z,20.86
2022-07-29T08:24:28.864Z,21.03
2022-07-29T08:26:55.533Z,21.18
2022-07-29T08:29:22.019Z,21.49
2022-07-29T08:31:48.498Z,21.71
2022-07-29T08:34:15.148Z,21.96
2022-07-29T08:36:41.686Z,22.05
2022-07-29T08:39:08.285Z,22.10
2022-07-29T08:41:34.869Z,22.01
2022-07-29T08:44:01.329Z,22.01
2022-07-29T08:46:27.868Z,22.13
2022-07-29T08:48:55.673Z,22.16
2022-07-29T08:51:22.680Z,22.21
2022-07-29T08:53:51.216Z,22.29
2022-07-29T08:56:19.749Z,22.33
2022-07-29T08:58:52.288Z,22.35
2022-07-29T09:01:35.129Z,22.57
2022-07-29T09:04:05.580Z,22.83
2022-07-29T09:06:34.311Z,23.12
2022-07-29T09:09:01.376Z,23.26
2022-07-29T09:11:28.167Z,23.44
2022-07-29T09:13:55.068Z,23.57
2022-07-29T09:16:50.955Z,23.72
2022-07-29T09:19:21.415Z,23.65
2022-07-29T09:22:00.121Z,23.36
2022-07-29T09:24:40.124Z,23.35
2022-07-29T09:27:20.743Z,23.37
2022-07-29T09:29:47.740Z,23.69
2022-07-29T09:32:14.340Z,23.84
2022-07-29T09:34:40.811Z,23.87
2022-07-29T09:37:07.362Z,23.90
2022-07-29T09:39:37.355Z,24.04
2022-07-29T09:42:06.257Z,24.25
2022-07-29T09:44:44.094Z,24.30
2022-07-29T09:47:10.957Z,24.55
2022-07-29T09:49:52.706Z,24.57
2022-07-29T09:52:19.198Z,24.61
2022-07-29T09:54:45.925Z,24.47
2022-07-29T09:57:30.883Z,24.31
2022-07-29T10:00:06.380Z,24.30
2022-07-29T10:02:35.176Z,24.32
2022-07-29T10:05:04.882Z,24.51
2022-07-29T10:07:57.351Z,24.54
2022-07-29T10:10:30.441Z,24.48
2022-07-29T10:13:04.405Z,24.49
2022-07-29T10:15:52.310Z,24.65
2022-07-29T10:18:20.988Z,24.57
2022-07-29T10:20:47.892Z,24.39
2022-07-29T10:23:14.973Z,24.31
2022-07-29T10:25:52.880Z,24.19
2022-07-29T10:28:19.308Z,24.40
2022-07-29T10:30:47.774Z,24.66
2022-07-29T10:33:38.284Z,24.83
2022-07-29T10:36:17.585Z,25.07
2022-07-29T10:39:18.374Z,25.22
2022-07-29T10:42:20.004Z,25.19
2022-07-29T10:44:47.696Z,25.24
2022-07-29T10:47:28.005Z,25.33
2022-07-29T10:49:58.641Z,25.52
2022-07-29T10:52:59.510Z,25.56
2022-07-29T10:56:11.433Z,25.57
2022-07-29T10:58:42.412Z,25.77
2022-07-29T11:01:37.072Z,26.08
2022-07-29T11:04:06.186Z,26.36
2022-07-29T11:07:10.662Z,26.31
2022-07-29T11:09:38.489Z,26.31
2022-07-29T11:12:25.985Z,26.22
2022-07-29T11:14:53.079Z,26.33
2022-07-29T11:17:19.825Z,26.63
2022-07-29T11:19:52.107Z,26.75
2022-07-29T11:22:35.147Z,26.77
2022-07-29T11:25:50.305Z,27.12
2022-07-29T11:28:22.960Z,27.07
2022-07-29T11:30:54.199Z,26.76
2022-07-29T11:33:54.581Z,26.92
2022-07-29T11:36:20.088Z,27.09
2022-07-29T11:39:27.037Z,27.22
2022-07-29T11:42:28.343Z,27.50
2022-07-29T11:45:44.273Z,27.63
2022-07-29T11:50:49.509Z,28.12
2022-07-29T11:53:16.503Z,28.36
2022-07-29T11:55:51.217Z,28.53
2022-07-29T11:58:24.853Z,28.89
2022-07-29T12:00:52.631Z,28.99
2022-07-29T12:03:35.387Z,29.06
2022-07-29T12:06:04.077Z,29.41
2022-07-29T12:08:31.189Z,29.47
2022-07-29T12:10:57.823Z,29.78
2022-07-29T12:13:37.663Z,29.97
2022-07-29T12:16:07.453Z,30.04
2022-07-29T12:18:34.006Z,30.09
2022-07-29T12:21:05.307Z,30.22
2022-07-29T12:23:34.978Z,30.31
2022-07-29T12:26:04.627Z,30.63
2022-07-29T12:28:32.065Z,30.97
2022-07-29T12:30:58.710Z,31.06
2022-07-29T12:33:28.582Z,30.65
2022-07-29T12:36:09.429Z,30.67
2022-07-29T12:38:41.585Z,30.85
2022-07-29T12:41:08.122Z,31.06
2022-07-29T12:43:34.589Z,30.79
2022-07-29T12:46:15.743Z,30.95
2022-07-29T12:48:44.070Z,31.06
2022-07-29T12:51:12.834Z,31.11
2022-07-29T12:53:39.401Z,31.10
2022-07-29T12:56:20.770Z,31.19
2022-07-29T12:58:53.540Z,31.21
2022-07-29T13:01:22.316Z,31.22
2022-07-29T13:03:57.608Z,31.51
2022-07-29T13:06:30.471Z,31.59
2022-07-29T13:09:08.164Z,31.57
2022-07-29T13:11:48.150Z,31.63
2022-07-29T13:14:32.687Z,31.49
2022-07-29T13:17:13.323Z,31.68
2022-07-29T13:19:45.500Z,31.48
2022-07-29T13:22:14.234Z,31.77
2022-07-29T13:24:51.490Z,31.82
2022-07-29T13:27:20.205Z,31.85
2022-07-29T13:29:47.486Z,31.90
2022-07-29T13:32:14.877Z,31.75
2022-07-29T13:34:41.951Z,31.69
2022-07-29T13:37:08.517Z,31.78
2022-07-29T13:39:35.082Z,31.98
2022-07-29T13:42:02.120Z,32.03
2022-07-29T13:44:28.689Z,32.45
2022-07-29T13:46:55.148Z,32.37
2022-07-29T13:49:21.645Z,32.69
2022-07-29T13:51:48.190Z,32.67
2022-07-29T13:54:14.718Z,32.33
2022-07-29T13:56:44.345Z,32.51
2022-07-29T13:59:13.154Z,32.84
2022-07-29T14:01:42.622Z,33.01
2022-07-29T14:04:10.828Z,33.21
2022-07-29T14:06:40.577Z,32.40
2022-07-29T14:09:10.146Z,32.46
2022-07-29T14:11:37.295Z,32.91
2022-07-29T14:14:03.926Z,33.16
2022-07-29T14:16:30.561Z,33.35
2022-07-29T14:18:57.159Z,33.52
2022-07-29T14:21:23.799Z,33.27
2022-07-29T14:23:53.100Z,33.50
2022-07-29T14:26:24.215Z,33.61
2022-07-29T14:28:51.168Z,33.68
2022-07-29T14:31:17.834Z,33.88
2022-07-29T14:33:46.244Z,34.07
2022-07-29T14:36:17.255Z,34.04
2022-07-29T14:38:44.530Z,33.79
2022-07-29T14:41:11.169Z,33.73
2022-07-29T14:43:37.854Z,33.69
2022-07-29T14:46:08.314Z,33.96
2022-07-29T14:48:35.126Z,34.08
2022-07-29T14:51:04.718Z,34.13
2022-07-29T14:53:31.669Z,34.15
2022-07-29T14:56:10.293Z,34.29
2022-07-29T14:58:51.512Z,34.54
2022-07-29T15:01:18.348Z,34.66
2022-07-29T15:03:44.955Z,34.49
2022-07-29T15:06:11.627Z,34.39
2022-07-29T15:08:38.431Z,34.76
2022-07-29T15:11:05.037Z,34.73
2022-07-29T15:13:31.548Z,34.76
2022-07-29T15:16:00.222Z,34.74
2022-07-29T15:18:29.297Z,34.73
2022-07-29T15:20:55.796Z,34.80
2022-07-29T15:23:22.431Z,34.87
2022-07-29T15:25:50.008Z,34.91
2022-07-29T15:28:16.579Z,34.92
2022-07-29T15:30:43.520Z,34.75
2022-07-29T15:33:10.648Z,34.40
2022-07-29T15:35:40.586Z,34.02
2022-07-29T15:38:07.956Z,33.87
2022-07-29T15:40:34.643Z,34.04
2022-07-29T15:43:06.871Z,34.42
2022-07-29T15:46:06.805Z,34.78
2022-07-29T15:48:33.593Z,34.80
2022-07-29T15:51:01.028Z,34.92
2022-07-29T15:53:27.547Z,34.82
2022-07-29T15:55:54.183Z,35.05
2022-07-29T15:58:20.815Z,35.24
2022-07-29T16:00:48.028Z,35.11
2022-07-29T16:03:18.091Z,34.92
2022-07-29T16:05:44.747Z,34.99
2022-07-29T16:08:11.333Z,35.41
2022-07-29T16:10:37.990Z,35.43
2022-07-29T16:13:07.414Z,35.54
2022-07-29T16:15:34.059Z,35.17
2022-07-29T16:18:00.895Z,35.04
2022-07-29T16:20:30.256Z,35.03
2022-07-29T16:22:56.928Z,35.16
2022-07-29T16:25:38.361Z,35.20
2022-07-29T16:28:13.352Z,35.23
2022-07-29T16:30:39.984Z,35.34
2022-07-29T16:33:08.479Z,35.56
2022-07-29T16:35:39.530Z,35.51
2022-07-29T16:38:06.829Z,35.52
2022-07-29T16:40:35.917Z,35.44
2022-07-29T16:43:02.757Z,35.36
2022-07-29T16:45:32.670Z,35.30
2022-07-29T16:48:12.307Z,35.28
2022-07-29T16:50:39.640Z,35.48
2022-07-29T16:53:06.564Z,35.80
2022-07-29T16:55:33.500Z,35.79
2022-07-29T16:58:00.099Z,35.65
2022-07-29T17:00:26.651Z,35.32
2022-07-29T17:02:53.203Z,34.92
2022-07-29T17:05:19.833Z,35.24
2022-07-29T17:07:46.510Z,35.53
2022-07-29T17:10:13.283Z,35.65
2022-07-29T17:12:41.138Z,35.60
2022-07-29T17:15:09.975Z,35.68
2022-07-29T17:17:39.283Z,35.67
2022-07-29T17:20:22.198Z,35.70
2022-07-29T17:22:48.771Z,35.61
2022-07-29T17:25:20.446Z,35.23
2022-07-29T17:27:51.266Z,34.96
2022-07-29T17:30:18.290Z,35.13
2022-07-29T17:32:44.871Z,35.14
2022-07-29T17:35:31.178Z,35.05
2022-07-29T17:38:00.141Z,35.18
2022-07-29T17:40:26.670Z,35.31
2022-07-29T17:42:53.275Z,35.18
2022-07-29T17:45:19.820Z,35.22
2022-07-29T17:47:47.833Z,35.21
2022-07-29T17:50:14.566Z,34.73
2022-07-29T17:52:41.756Z,33.41
2022-07-29T17:55:10.347Z,32.05
2022-07-29T17:57:36.903Z,31.15
2022-07-29T18:00:05.509Z,30.49
2022-07-29T18:02:37.627Z,29.78
2022-07-29T18:05:05.269Z,29.25
2022-07-29T18:07:31.818Z,28.83
2022-07-29T18:10:00.550Z,28.50
2022-07-29T18:12:27.618Z,28.13
2022-07-29T18:14:54.066Z,27.81
2022-07-29T18:17:20.524Z,27.41
2022-07-29T18:19:48.224Z,27.15
2022-07-29T18:22:15.220Z,26.97
2022-07-29T18:24:44.661Z,26.77
2022-07-29T18:27:11.209Z,26.53
2022-07-29T18:29:37.882Z,26.25
2022-07-29T18:32:05.011Z,26.06
2022-07-29T18:34:32.159Z,25.91
2022-07-29T18:37:01.822Z,25.75
2022-07-29T18:39:29.408Z,25.58
2022-07-29T18:41:56.034Z,25.34
2022-07-29T18:44:24.972Z,25.18
2022-07-29T18:46:54.352Z,25.07
2022-07-29T18:49:21.906Z,24.93
2022-07-29T18:51:49.816Z,24.58
2022-07-29T18:54:20.179Z,24.48
2022-07-29T18:56:47.756Z,24.35
2022-07-29T18:59:19.758Z,24.26
2022-07-29T19:01:47.425Z,24.14
2022-07-29T19:04:14.732Z,24.01
2022-07-29T19:06:44.903Z,23.85
2022-07-29T19:09:11.484Z,23.70
2022-07-29T19:11:38.703Z,23.67
2022-07-29T19:14:06.302Z,23.57
2022-07-29T19:16:34.088Z,23.49
2022-07-29T19:19:03.462Z,23.41
2022-07-29T19:21:30.529Z,23.32
2022-07-29T19:24:01.608Z,23.24
2022-07-29T19:26:36.579Z,23.14
2022-07-29T19:29:04.129Z,23.08
2022-07-29T19:31:33.286Z,22.94
2022-07-29T19:34:03.017Z,22.83
2022-07-29T19:36:31.855Z,22.79
2022-07-29T19:38:59.953Z,22.75
2022-07-29T19:41:27.375Z,22.66
2022-07-29T19:43:54.203Z,22.56
2022-07-29T19:46:24.575Z,22.51
2022-07-29T19:48:51.099Z,22.43
2022-07-29T19:51:17.655Z,22.29
2022-07-29T19:53:44.193Z,22.23
2022-07-29T19:56:13.762Z,22.16
2022-07-29T19:58:41.746Z,22.09
2022-07-29T20:01:10.960Z,22.04
2022-07-29T20:03:40.547Z,22.00
2022-07-29T20:06:07.669Z,21.95
2022-07-29T20:08:34.365Z,21.89
2022-07-29T20:11:00.948Z,21.84
2022-07-29T20:13:27.550Z,21.80
2022-07-29T20:15:54.128Z,21.71
2022-07-29T20:18:20.688Z,21.65
2022-07-29T20:20:48.192Z,21.58
2022-07-29T20:23:16.002Z,21.54
2022-07-29T20:25:42.635Z,21.47
2022-07-29T20:28:09.150Z,21.36
2022-07-29T20:30:35.679Z,21.24
2022-07-29T20:33:05.172Z,21.21
2022-07-29T20:35:31.896Z,21.18
2022-07-29T20:37:58.474Z,21.12
2022-07-29T20:40:26.662Z,21.11
2022-07-29T20:42:54.728Z,21.06
2022-07-29T20:45:25.616Z,21.00
2022-07-29T20:47:52.819Z,20.94
2022-07-29T20:50:23.869Z,20.89
2022-07-29T20:52:51.619Z,20.90
2022-07-29T20:55:18.180Z,20.87
2022-07-29T20:57:44.688Z,20.85
2022-07-29T21:00:11.950Z,20.80
2022-07-29T21:02:38.878Z,20.73
2022-07-29T21:05:08.880Z,20.63
2022-07-29T21:07:35.686Z,20.58
2022-07-29T21:10:02.450Z,20.53
2022-07-29T21:12:30.193Z,20.47
2022-07-29T21:15:13.592Z,20.35
2022-07-29T21:17:46.419Z,20.30
2022-07-29T21:20:15.437Z,20.29
2022-07-29T21:22:42.419Z,20.26
2022-07-29T21:25:10.708Z,20.21
2022-07-29T21:27:56.275Z,20.16
2022-07-29T21:30:23.012Z,20.05
2022-07-29T21:32:49.533Z,20.03
2022-07-29T21:35:35.758Z,19.98
2022-07-29T21:38:02.832Z,19.91
2022-07-29T21:40:31.525Z,19.86
2022-07-29T21:42:58.107Z,19.79
2022-07-29T21:45:25.491Z,19.72
2022-07-29T21:47:52.054Z,19.68
2022-07-29T21:50:18.815Z,19.67
2022-07-29T21:52:45.452Z,19.61
2022-07-29T21:55:13.626Z,19.58
2022-07-29T21:57:40.460Z,19.53
2022-07-29T22:00:10.366Z,19.50
2022-07-29T22:02:37.094Z,19.48
2022-07-29T22:05:04.161Z,19.41
2022-07-29T22:07:54.672Z,19.42
2022-07-29T22:10:17.347Z,19.41
2022-07-29T22:12:43.823Z,19.35
2022-07-29T22:15:11.220Z,19.30
2022-07-29T22:17:39.770Z,19.27
2022-07-29T22:20:06.699Z,19.25
2022-07-29T22:22:33.209Z,19.24
2022-07-29T22:24:59.790Z,19.24
2022-07-29T22:27:26.289Z,19.21
2022-07-29T22:29:52.737Z,19.20
2022-07-29T22:32:19.320Z,19.17
2022-07-29T22:34:46.706Z,19.17
2022-07-29T22:37:13.250Z,19.12
2022-07-29T22:39:39.721Z,19.05
2022-07-29T22:42:06.368Z,18.96
2022-07-29T22:44:33.247Z,18.87
2022-07-29T22:47:00.733Z,18.82
2022-07-29T22:49:28.556Z,18.73
2022-07-29T22:51:55.036Z,18.68
2022-07-29T22:54:21.759Z,18.61
2022-07-29T22:56:48.452Z,18.59
2022-07-29T22:59:14.922Z,18.60
2022-07-29T23:01:41.437Z,18.56
2022-07-29T23:04:07.993Z,18.54
2022-07-29T23:06:34.632Z,18.51
2022-07-29T23:09:01.156Z,18.54
2022-07-29T23:11:28.285Z,18.51
2022-07-29T23:13:54.710Z,18.46
2022-07-29T23:16:26.447Z,18.37
2022-07-29T23:18:53.861Z,18.29
2022-07-29T23:21:20.934Z,18.23
2022-07-29T23:23:48.493Z,18.14
2022-07-29T23:26:16.833Z,18.06
2022-07-29T23:28:44.692Z,17.90
2022-07-29T23:31:11.644Z,17.82
2022-07-29T23:33:38.219Z,17.78
2022-07-29T23:36:04.749Z,17.70
2022-07-29T23:38:31.311Z,17.67
2022-07-29T23:40:58.712Z,17.60
2022-07-29T23:43:25.266Z,17.58
2022-07-29T23:45:51.787Z,17.51
2022-07-29T23:48:20.791Z,17.48
2022-07-29T23:50:47.287Z,17.46
2022-07-29T23:53:13.764Z,17.49
2022-07-29T23:55:40.243Z,17.45
2022-07-29T23:58:06.689Z,17.39
